Terminal Aerodrome Forecast
Issued by NWS

Home | Current Version | Previous Version | Text Only | Print | Product List | Glossary On
Versions: 1 2 3 4 5 6 7 8 9 10 11 12 13 14 15 16
000
FTUS41 KBTV 251736
TAFMSS
TAF
KMSS 251736Z 2518/2618 05008KT P6SM SCT030
      TEMPO 2518/2519 BKN025
     FM260800 VRB03KT 5SM BR SKC
     FM261300 20006KT P6SM SCT100=

USA.gov is the U.S. government's official web portal to all federal, state and local government web resources and services.